createdAt,value
2023-04-10T00:00:36.948Z,64.83
2023-04-10T00:01:36.908Z,64.83
2023-04-10T00:02:37.083Z,64.83
2023-04-10T00:03:37.043Z,64.83
2023-04-10T00:04:36.945Z,64.83
2023-04-10T00:05:36.882Z,64.83
2023-04-10T00:06:36.893Z,64.83
2023-04-10T00:07:36.842Z,64.83
2023-04-10T00:08:36.854Z,64.83
2023-04-10T00:09:36.815Z,64.83
2023-04-10T00:10:36.821Z,64.83
2023-04-10T00:11:36.817Z,64.83
2023-04-10T00:12:36.804Z,64.83
2023-04-10T00:13:36.783Z,64.83
2023-04-10T00:14:36.784Z,64.83
2023-04-10T00:15:36.762Z,64.83
2023-04-10T00:16:36.782Z,64.83
2023-04-10T00:17:36.816Z,64.83
2023-04-10T00:18:36.742Z,64.83
2023-04-10T00:19:36.768Z,64.83
2023-04-10T00:20:36.698Z,64.83
2023-04-10T00:21:36.726Z,64.83
2023-04-10T00:22:36.698Z,64.83
2023-04-10T00:23:36.663Z,64.83
2023-04-10T00:24:36.687Z,64.83
2023-04-10T00:25:36.642Z,64.83
2023-04-10T00:26:36.638Z,64.83
2023-04-10T00:27:36.661Z,64.83
2023-04-10T00:28:36.618Z,64.83
2023-04-10T00:29:36.603Z,64.83
2023-04-10T00:30:36.593Z,64.83
2023-04-10T00:31:36.617Z,64.83
2023-04-10T00:32:36.615Z,64.83
2023-04-10T00:33:36.594Z,64.83
2023-04-10T00:34:36.551Z,64.83
2023-04-10T00:35:36.570Z,64.83
2023-04-10T00:36:36.526Z,64.83
2023-04-10T00:37:36.556Z,64.83
2023-04-10T00:38:36.539Z,64.83
2023-04-10T00:39:36.501Z,64.83
2023-04-10T00:40:36.511Z,64.83
2023-04-10T00:41:36.476Z,64.83
2023-04-10T00:42:36.464Z,64.83
2023-04-10T00:43:36.453Z,64.83
2023-04-10T00:44:36.442Z,64.83
2023-04-10T00:45:36.483Z,64.83
2023-04-10T00:46:36.516Z,64.83
2023-04-10T00:47:36.465Z,64.83
2023-04-10T00:48:36.399Z,64.83
2023-04-10T00:49:36.394Z,64.83
2023-04-10T00:50:36.380Z,64.83
2023-04-10T00:51:36.369Z,64.83
2023-04-10T00:52:36.382Z,64.83
2023-04-10T00:53:36.395Z,64.83
2023-04-10T00:54:36.347Z,64.83
2023-04-10T00:55:36.327Z,64.83
2023-04-10T00:56:36.334Z,64.83
2023-04-10T00:57:36.305Z,64.83
2023-04-10T00:58:36.299Z,64.83
2023-04-10T00:59:36.284Z,64.83
2023-04-10T01:00:36.272Z,64.83
2023-04-10T01:01:36.414Z,64.83
2023-04-10T01:02:36.412Z,64.83
2023-04-10T01:03:36.449Z,64.83
2023-04-10T01:04:36.428Z,64.83
2023-04-10T01:05:36.221Z,64.83
2023-04-10T01:06:36.227Z,64.83
2023-04-10T01:07:36.218Z,64.83
2023-04-10T01:08:36.222Z,64.83
2023-04-10T01:09:36.199Z,64.83
2023-04-10T01:10:36.172Z,64.83
2023-04-10T01:11:36.153Z,64.73
2023-04-10T01:12:36.164Z,64.83
2023-04-10T01:13:36.137Z,64.83
2023-04-10T01:14:36.122Z,64.83
2023-04-10T01:15:36.110Z,64.83
2023-04-10T01:16:36.194Z,64.83
2023-04-10T01:17:36.140Z,64.83
2023-04-10T01:18:36.105Z,64.83
2023-04-10T01:19:36.071Z,64.73
2023-04-10T01:20:36.059Z,64.83
2023-04-10T01:21:36.042Z,64.83
2023-04-10T01:22:36.034Z,64.83
2023-04-10T01:23:36.045Z,64.83
2023-04-10T01:24:36.015Z,64.83
2023-04-10T01:25:36.030Z,64.83
2023-04-10T01:26:36.022Z,64.83
2023-04-10T01:27:35.979Z,64.83
2023-04-10T01:28:35.983Z,64.83
2023-04-10T01:29:35.963Z,64.73
2023-04-10T01:30:35.984Z,64.83
2023-04-10T01:31:35.937Z,64.83
2023-04-10T01:32:36.021Z,64.73
2023-04-10T01:33:35.913Z,64.73
2023-04-10T01:34:35.956Z,64.73
2023-04-10T01:35:35.935Z,64.83
2023-04-10T01:36:35.908Z,64.83
2023-04-10T01:37:35.870Z,64.83
2023-04-10T01:38:35.864Z,64.83
2023-04-10T01:39:35.850Z,64.83
2023-04-10T01:40:35.838Z,64.83
2023-04-10T01:41:35.856Z,64.83
2023-04-10T01:42:35.844Z,64.83
2023-04-10T01:43:35.808Z,64.83
2023-04-10T01:44:35.798Z,64.83
2023-04-10T01:45:35.788Z,64.83
2023-04-10T01:46:35.836Z,64.83
2023-04-10T01:47:35.860Z,64.83
2023-04-10T01:48:35.755Z,64.83
2023-04-10T01:49:35.749Z,64.83
2023-04-10T01:50:35.749Z,64.83
2023-04-10T01:51:35.728Z,64.83
2023-04-10T01:52:35.721Z,64.83
2023-04-10T01:53:35.728Z,64.83
2023-04-10T01:54:35.690Z,64.83
2023-04-10T01:55:35.682Z,64.83
2023-04-10T01:56:35.670Z,64.83
2023-04-10T01:57:35.687Z,64.83
2023-04-10T01:58:35.653Z,64.83
2023-04-10T01:59:35.663Z,64.73
2023-04-10T02:00:35.655Z,64.73
2023-04-10T02:01:35.729Z,64.83
2023-04-10T02:02:35.720Z,64.83
2023-04-10T02:03:35.702Z,64.83
2023-04-10T02:04:35.710Z,64.83
2023-04-10T02:05:35.591Z,64.83
2023-04-10T02:06:35.580Z,64.73
2023-04-10T02:07:35.560Z,64.83
2023-04-10T02:08:35.542Z,64.83
2023-04-10T02:09:35.534Z,64.73
2023-04-10T02:10:35.549Z,64.83
2023-04-10T02:11:35.509Z,64.83
2023-04-10T02:12:35.501Z,64.73
2023-04-10T02:13:35.531Z,64.73
2023-04-10T02:14:35.478Z,64.73
2023-04-10T02:15:35.526Z,64.73
2023-04-10T02:16:35.524Z,64.83
2023-04-10T02:17:35.460Z,64.83
2023-04-10T02:18:35.441Z,64.83
2023-04-10T02:19:35.482Z,64.73
2023-04-10T02:20:35.425Z,64.83
2023-04-10T02:21:35.402Z,64.73
2023-04-10T02:22:35.440Z,64.73
2023-04-10T02:23:35.378Z,64.73
2023-04-10T02:24:35.397Z,64.73
2023-04-10T02:25:35.369Z,64.83
2023-04-10T02:26:35.346Z,64.73
2023-04-10T02:27:35.339Z,64.73
2023-04-10T02:28:35.325Z,64.73
2023-04-10T02:29:35.343Z,64.73
2023-04-10T02:30:35.404Z,64.73
2023-04-10T02:31:35.360Z,64.73
2023-04-10T02:32:35.316Z,64.73
2023-04-10T02:33:35.271Z,64.73
2023-04-10T02:34:35.284Z,64.73
2023-04-10T02:35:35.315Z,64.73
2023-04-10T02:36:35.268Z,64.73
2023-04-10T02:37:35.235Z,64.73
2023-04-10T02:38:35.220Z,64.73
2023-04-10T02:39:35.239Z,64.73
2023-04-10T02:40:35.199Z,64.73
2023-04-10T02:41:35.201Z,64.73
2023-04-10T02:42:35.177Z,64.73
2023-04-10T02:43:35.177Z,64.73
2023-04-10T02:44:35.159Z,64.73
2023-04-10T02:45:35.189Z,64.73
2023-04-10T02:46:35.148Z,64.73
2023-04-10T02:47:35.159Z,64.83
2023-04-10T02:48:35.117Z,64.73
2023-04-10T02:49:35.116Z,64.73
2023-04-10T02:50:35.119Z,64.73
2023-04-10T02:51:35.107Z,64.73
2023-04-10T02:52:35.100Z,64.73
2023-04-10T02:53:35.087Z,64.73
2023-04-10T02:54:35.054Z,64.73
2023-04-10T02:55:35.047Z,64.73
2023-04-10T02:56:35.028Z,64.73
2023-04-10T02:57:35.037Z,64.73
2023-04-10T02:58:35.004Z,64.73
2023-04-10T02:59:35.028Z,64.73
2023-04-10T03:00:34.985Z,64.83
2023-04-10T03:01:35.064Z,64.83
2023-04-10T03:02:35.039Z,64.83
2023-04-10T03:03:35.101Z,64.83
2023-04-10T03:04:34.976Z,64.73
2023-04-10T03:05:34.934Z,64.73
2023-04-10T03:06:34.919Z,64.73
2023-04-10T03:07:34.935Z,64.73
2023-04-10T03:08:34.914Z,64.73
2023-04-10T03:09:34.886Z,64.73
2023-04-10T03:10:34.879Z,64.83
2023-04-10T03:11:34.867Z,64.83
2023-04-10T03:12:34.865Z,64.73
2023-04-10T03:13:34.865Z,64.73
2023-04-10T03:14:34.835Z,64.73
2023-04-10T03:15:34.822Z,64.73
2023-04-10T03:16:34.917Z,64.83
2023-04-10T03:17:34.839Z,64.83
2023-04-10T03:18:34.810Z,64.73
2023-04-10T03:19:34.782Z,64.83
2023-04-10T03:20:34.769Z,64.73
2023-04-10T03:21:34.766Z,64.73
2023-04-10T03:22:34.772Z,64.73
2023-04-10T03:23:34.739Z,64.73
2023-04-10T03:24:34.730Z,64.73
2023-04-10T03:25:34.724Z,64.73
2023-04-10T03:26:34.717Z,64.73
2023-04-10T03:27:34.719Z,64.83
2023-04-10T03:28:34.683Z,64.73
2023-04-10T03:29:34.694Z,64.73
2023-04-10T03:30:34.662Z,64.73
2023-04-10T03:31:34.678Z,64.73
2023-04-10T03:32:34.664Z,64.73
2023-04-10T03:33:34.669Z,64.83
2023-04-10T03:34:34.645Z,64.73
2023-04-10T03:35:34.630Z,64.73
2023-04-10T03:36:34.606Z,64.73
2023-04-10T03:37:34.584Z,64.73
2023-04-10T03:38:34.602Z,64.73
2023-04-10T03:39:34.563Z,64.83
2023-04-10T03:40:34.579Z,64.73
2023-04-10T03:41:34.541Z,64.73
2023-04-10T03:42:34.576Z,64.73
2023-04-10T03:43:34.520Z,64.73
2023-04-10T03:44:34.520Z,64.73
2023-04-10T03:45:34.503Z,64.73
2023-04-10T03:46:34.526Z,64.73
2023-04-10T03:47:34.543Z,64.73
2023-04-10T03:48:34.493Z,64.73
2023-04-10T03:49:34.510Z,64.73
2023-04-10T03:50:34.448Z,64.73
2023-04-10T03:51:34.435Z,64.73
2023-04-10T03:52:34.427Z,64.73
2023-04-10T03:53:35.118Z,64.73
2023-04-10T03:54:34.432Z,64.73
2023-04-10T03:55:34.391Z,64.73
2023-04-10T03:56:34.384Z,64.73
2023-04-10T03:57:34.387Z,64.73
2023-04-10T03:58:34.360Z,64.73
2023-04-10T03:59:38.690Z,64.73
2023-04-10T04:00:34.338Z,64.73
2023-04-10T04:01:34.384Z,64.73
2023-04-10T04:02:34.588Z,64.73
2023-04-10T04:03:34.651Z,64.73
2023-04-10T04:04:34.431Z,64.73
2023-04-10T04:05:34.316Z,64.73
2023-04-10T04:06:34.298Z,64.73
2023-04-10T04:07:34.267Z,64.73
2023-04-10T04:08:34.266Z,64.73
2023-04-10T04:09:34.275Z,64.73
2023-04-10T04:10:34.260Z,64.73
2023-04-10T04:11:34.227Z,64.73
2023-04-10T04:12:34.207Z,64.73
2023-04-10T04:13:34.198Z,64.73
2023-04-10T04:14:34.191Z,64.73
2023-04-10T04:15:34.191Z,64.73
2023-04-10T04:16:34.202Z,64.73
2023-04-10T04:17:34.222Z,64.73
2023-04-10T04:18:34.201Z,64.73
2023-04-10T04:19:34.150Z,64.73
2023-04-10T04:20:34.156Z,64.73
2023-04-10T04:21:34.138Z,64.73
2023-04-10T04:22:34.099Z,64.73
2023-04-10T04:23:34.190Z,64.73
2023-04-10T04:24:34.083Z,64.73
2023-04-10T04:25:34.068Z,64.73
2023-04-10T04:26:34.061Z,64.73
2023-04-10T04:27:34.054Z,64.73
2023-04-10T04:28:34.040Z,64.73
2023-04-10T04:29:34.050Z,64.73
2023-04-10T04:30:34.026Z,64.73
2023-04-10T04:31:34.123Z,64.73
2023-04-10T04:32:34.068Z,64.73
2023-04-10T04:33:33.983Z,64.73
2023-04-10T04:34:33.976Z,64.73
2023-04-10T04:35:34.015Z,64.73
2023-04-10T04:36:33.975Z,64.73
2023-04-10T04:37:33.985Z,64.73
2023-04-10T04:38:33.983Z,64.73
2023-04-10T04:39:33.923Z,64.73
2023-04-10T04:40:33.911Z,64.73
2023-04-10T04:41:33.905Z,64.73
2023-04-10T04:42:33.892Z,64.73
2023-04-10T04:43:33.899Z,64.73
2023-04-10T04:44:33.879Z,64.73
2023-04-10T04:45:33.855Z,64.73
2023-04-10T04:46:33.866Z,64.73
2023-04-10T04:47:33.850Z,64.73
2023-04-10T04:48:33.827Z,64.73
2023-04-10T04:49:33.837Z,64.73
2023-04-10T04:50:33.806Z,64.73
2023-04-10T04:51:33.792Z,64.73
2023-04-10T04:52:33.784Z,64.73
2023-04-10T04:53:33.825Z,64.73
2023-04-10T04:54:33.765Z,64.73
2023-04-10T04:55:33.784Z,64.73
2023-04-10T04:56:33.764Z,64.73
2023-04-10T04:57:33.730Z,64.73
2023-04-10T04:58:33.724Z,64.73
2023-04-10T04:59:33.709Z,64.73
2023-04-10T05:00:33.697Z,64.73
2023-04-10T05:01:33.820Z,64.73
2023-04-10T05:02:33.810Z,64.62
2023-04-10T05:03:33.827Z,64.73
2023-04-10T05:04:33.653Z,64.73
2023-04-10T05:05:33.645Z,64.73
2023-04-10T05:06:33.644Z,64.73
2023-04-10T05:07:33.700Z,64.73
2023-04-10T05:08:33.608Z,64.73
2023-04-10T05:09:33.621Z,64.73
2023-04-10T05:10:33.589Z,64.62
2023-04-10T05:11:33.654Z,64.73
2023-04-10T05:12:33.565Z,64.73
2023-04-10T05:13:33.555Z,64.73
2023-04-10T05:14:33.541Z,64.73
2023-04-10T05:15:33.561Z,64.73
2023-04-10T05:16:33.633Z,64.73
2023-04-10T05:17:33.624Z,64.62
2023-04-10T05:18:33.515Z,64.73
2023-04-10T05:19:33.492Z,64.73
2023-04-10T05:20:33.483Z,64.73
2023-04-10T05:21:33.492Z,64.73
2023-04-10T05:22:33.453Z,64.73
2023-04-10T05:23:33.446Z,64.73
2023-04-10T05:24:33.432Z,64.73
2023-04-10T05:25:33.451Z,64.73
2023-04-10T05:26:33.413Z,64.73
2023-04-10T05:27:33.434Z,64.62
2023-04-10T05:28:33.398Z,64.73
2023-04-10T05:29:33.385Z,64.73
2023-04-10T05:30:33.371Z,64.73
2023-04-10T05:31:33.411Z,64.73
2023-04-10T05:32:33.393Z,64.73
2023-04-10T05:33:33.338Z,64.73
2023-04-10T05:34:33.325Z,64.73
2023-04-10T05:35:33.345Z,64.73
2023-04-10T05:36:33.313Z,64.73
2023-04-10T05:37:33.336Z,64.73
2023-04-10T05:38:33.285Z,64.73
2023-04-10T05:39:33.272Z,64.62
2023-04-10T05:40:33.262Z,64.73
2023-04-10T05:41:33.277Z,64.62
2023-04-10T05:42:33.305Z,64.73
2023-04-10T05:43:33.291Z,64.62
2023-04-10T05:44:33.256Z,64.62
2023-04-10T05:45:33.214Z,64.73
2023-04-10T05:46:33.245Z,64.73
2023-04-10T05:47:33.265Z,64.73
2023-04-10T05:48:33.180Z,64.73
2023-04-10T05:49:33.207Z,64.73
2023-04-10T05:50:33.166Z,64.73
2023-04-10T05:51:33.152Z,64.73
2023-04-10T05:52:33.145Z,64.73
2023-04-10T05:53:33.195Z,64.73
2023-04-10T05:54:33.119Z,64.73
2023-04-10T05:55:33.104Z,64.62
2023-04-10T05:56:33.114Z,64.73
2023-04-10T05:57:33.103Z,64.73
2023-04-10T05:58:33.090Z,64.73
2023-04-10T05:59:33.059Z,64.73
2023-04-10T06:00:33.107Z,64.62
2023-04-10T06:01:33.037Z,64.73
2023-04-10T06:02:33.323Z,64.73
2023-04-10T06:03:33.168Z,64.62
2023-04-10T06:04:33.200Z,64.73
2023-04-10T06:05:33.236Z,64.73
2023-04-10T06:06:32.990Z,64.73
2023-04-10T06:07:32.975Z,64.73
2023-04-10T06:08:32.994Z,64.73
2023-04-10T06:09:32.966Z,64.73
2023-04-10T06:10:32.945Z,64.62
2023-04-10T06:11:32.943Z,64.73
2023-04-10T06:12:32.940Z,64.62
2023-04-10T06:13:32.943Z,64.62
2023-04-10T06:14:32.927Z,64.62
2023-04-10T06:15:32.892Z,64.73
2023-04-10T06:16:32.897Z,64.73
2023-04-10T06:17:32.884Z,64.73
2023-04-10T06:18:32.860Z,64.73
2023-04-10T06:19:32.947Z,64.62
2023-04-10T06:20:32.833Z,64.62
2023-04-10T06:21:32.931Z,64.62
2023-04-10T06:22:32.822Z,64.62
2023-04-10T06:23:32.863Z,64.62
2023-04-10T06:24:32.792Z,64.62
2023-04-10T06:25:32.782Z,64.62
2023-04-10T06:26:32.764Z,64.62
2023-04-10T06:27:32.755Z,64.62
2023-04-10T06:28:33.263Z,64.62
2023-04-10T06:29:32.777Z,64.62
2023-04-10T06:30:32.727Z,64.62
2023-04-10T06:31:32.733Z,64.62
2023-04-10T06:32:32.780Z,64.62
2023-04-10T06:33:32.722Z,64.62
2023-04-10T06:34:32.786Z,64.62
2023-04-10T06:35:32.692Z,64.62
2023-04-10T06:36:32.660Z,64.62
2023-04-10T06:37:32.666Z,64.62
2023-04-10T06:38:32.685Z,64.62
2023-04-10T06:39:32.664Z,64.62
2023-04-10T06:40:32.620Z,64.62
2023-04-10T06:41:32.616Z,64.62
2023-04-10T06:42:32.618Z,64.62
2023-04-10T06:43:32.627Z,64.62
2023-04-10T06:44:32.574Z,64.62
2023-04-10T06:45:32.633Z,64.62
2023-04-10T06:46:32.583Z,64.62
2023-04-10T06:47:32.585Z,64.62
2023-04-10T06:48:32.543Z,64.62
2023-04-10T06:49:32.532Z,64.62
2023-04-10T06:50:33.519Z,64.62
2023-04-10T06:51:32.589Z,64.62
2023-04-10T06:52:32.498Z,64.62
2023-04-10T06:53:32.483Z,64.62
2023-04-10T06:54:32.474Z,64.62
2023-04-10T06:55:32.465Z,64.62
2023-04-10T06:56:33.445Z,64.62
2023-04-10T06:57:32.436Z,64.62
2023-04-10T06:58:32.430Z,64.62
2023-04-10T06:59:32.742Z,64.62
2023-04-10T07:00:32.437Z,64.62
2023-04-10T07:01:32.507Z,64.62
2023-04-10T07:02:32.407Z,64.62
2023-04-10T07:03:32.524Z,64.62
2023-04-10T07:04:32.364Z,64.62
2023-04-10T07:05:32.356Z,64.62
2023-04-10T07:06:32.373Z,64.62
2023-04-10T07:07:32.327Z,64.62
2023-04-10T07:08:32.319Z,64.62
2023-04-10T07:09:32.496Z,64.62
2023-04-10T07:10:32.316Z,64.62
2023-04-10T07:11:32.289Z,64.62
2023-04-10T07:12:32.280Z,64.52
2023-04-10T07:13:32.273Z,64.62
2023-04-10T07:14:32.277Z,64.62
2023-04-10T07:15:32.556Z,64.62
2023-04-10T07:16:32.270Z,64.62
2023-04-10T07:17:32.278Z,64.62
2023-04-10T07:18:32.324Z,64.62
2023-04-10T07:19:32.203Z,64.62
2023-04-10T07:20:32.192Z,64.62
2023-04-10T07:21:32.177Z,64.62
2023-04-10T07:22:32.167Z,64.62
2023-04-10T07:23:32.161Z,64.62
2023-04-10T07:24:32.166Z,64.62
2023-04-10T07:25:32.181Z,64.62
2023-04-10T07:26:32.137Z,64.62
2023-04-10T07:27:32.162Z,64.62
2023-04-10T07:28:32.102Z,64.62
2023-04-10T07:29:32.097Z,64.62
2023-04-10T07:30:32.081Z,64.62
2023-04-10T07:31:32.173Z,64.62
2023-04-10T07:32:34.329Z,64.62
2023-04-10T07:33:32.128Z,64.62
2023-04-10T07:34:32.271Z,64.62
2023-04-10T07:35:32.109Z,64.62
2023-04-10T07:36:32.036Z,64.62
2023-04-10T07:37:32.023Z,64.62
2023-04-10T07:38:31.995Z,64.62
2023-04-10T07:39:32.021Z,64.62
2023-04-10T07:40:31.975Z,64.62
2023-04-10T07:41:31.964Z,64.62
2023-04-10T07:42:31.959Z,64.62
2023-04-10T07:43:31.957Z,64.62
2023-04-10T07:44:31.932Z,64.62
2023-04-10T07:45:32.031Z,64.62
2023-04-10T07:46:31.932Z,64.62
2023-04-10T07:47:31.918Z,64.62
2023-04-10T07:48:31.887Z,64.62
2023-04-10T07:49:31.959Z,64.62
2023-04-10T07:50:31.867Z,64.62
2023-04-10T07:51:32.301Z,64.62
2023-04-10T07:52:31.844Z,64.62
2023-04-10T07:53:31.841Z,64.62
2023-04-10T07:54:31.828Z,64.62
2023-04-10T07:55:31.817Z,64.62
2023-04-10T07:56:31.833Z,64.62
2023-04-10T07:57:31.793Z,64.62
2023-04-10T07:58:31.789Z,64.52
2023-04-10T07:59:31.813Z,64.62
2023-04-10T08:00:31.762Z,64.62
2023-04-10T08:01:31.759Z,64.62
2023-04-10T08:02:31.924Z,64.62
2023-04-10T08:03:31.993Z,64.62
2023-04-10T08:04:31.973Z,64.62
2023-04-10T08:05:31.836Z,64.62
2023-04-10T08:06:31.698Z,64.62
2023-04-10T08:07:31.685Z,64.62
2023-04-10T08:08:31.676Z,64.62
2023-04-10T08:09:32.131Z,64.52
2023-04-10T08:10:31.666Z,64.62
2023-04-10T08:11:31.685Z,64.62
2023-04-10T08:12:31.631Z,64.62
2023-04-10T08:13:32.200Z,64.62
2023-04-10T08:14:31.618Z,64.52
2023-04-10T08:15:31.651Z,64.62
2023-04-10T08:16:31.641Z,64.62
2023-04-10T08:17:31.662Z,64.62
2023-04-10T08:18:31.566Z,64.62
2023-04-10T08:19:31.570Z,64.62
2023-04-10T08:20:31.542Z,64.62
2023-04-10T08:21:31.684Z,64.52
2023-04-10T08:22:31.521Z,64.62
2023-04-10T08:23:31.509Z,64.62
2023-04-10T08:24:31.508Z,64.62
2023-04-10T08:25:31.488Z,64.52
2023-04-10T08:26:31.693Z,64.62
2023-04-10T08:27:31.473Z,64.52
2023-04-10T08:28:31.463Z,64.52
2023-04-10T08:29:31.450Z,64.62
2023-04-10T08:30:31.504Z,64.52
2023-04-10T08:31:31.689Z,64.52
2023-04-10T08:32:31.506Z,64.62
2023-04-10T08:33:31.408Z,64.62
2023-04-10T08:34:31.392Z,64.52
2023-04-10T08:35:31.491Z,64.62
2023-04-10T08:36:31.370Z,64.62
2023-04-10T08:37:31.399Z,64.52
2023-04-10T08:38:31.357Z,64.62
2023-04-10T08:39:31.340Z,64.52
2023-04-10T08:40:32.026Z,64.52
2023-04-10T08:41:31.318Z,64.52
2023-04-10T08:42:31.931Z,64.52
2023-04-10T08:43:31.299Z,64.52
2023-04-10T08:44:31.331Z,64.52
2023-04-10T08:45:31.276Z,64.52
2023-04-10T08:46:31.448Z,64.52
2023-04-10T08:47:31.290Z,64.62
2023-04-10T08:48:31.241Z,64.52
2023-04-10T08:49:31.233Z,64.52
2023-04-10T08:50:31.237Z,64.62
2023-04-10T08:51:31.211Z,64.52
2023-04-10T08:52:31.282Z,64.52
2023-04-10T08:53:31.220Z,64.52
2023-04-10T08:54:31.180Z,64.52
2023-04-10T08:55:31.170Z,64.62
2023-04-10T08:56:31.182Z,64.52
2023-04-10T08:57:31.495Z,64.52
2023-04-10T08:58:31.136Z,64.52
2023-04-10T08:59:31.137Z,64.52
2023-04-10T09:00:31.114Z,64.52
2023-04-10T09:01:31.224Z,64.52
2023-04-10T09:02:31.407Z,64.52
2023-04-10T09:03:31.274Z,64.52
2023-04-10T09:04:31.223Z,64.52
2023-04-10T09:05:31.063Z,64.52
2023-04-10T09:06:31.079Z,64.52
2023-04-10T09:07:31.037Z,64.62
2023-04-10T09:08:31.035Z,64.52
2023-04-10T09:09:31.077Z,64.52
2023-04-10T09:10:31.005Z,64.52
2023-04-10T09:11:30.997Z,64.52
2023-04-10T09:12:30.988Z,64.52
2023-04-10T09:13:30.971Z,64.52
2023-04-10T09:14:30.963Z,64.52
2023-04-10T09:15:31.032Z,64.52
2023-04-10T09:16:30.987Z,64.52
2023-04-10T09:17:31.030Z,64.62
2023-04-10T09:18:30.919Z,64.52
2023-04-10T09:19:30.921Z,64.52
2023-04-10T09:20:30.899Z,64.52
2023-04-10T09:21:30.893Z,64.52
2023-04-10T09:22:30.957Z,64.62
2023-04-10T09:23:31.819Z,64.62
2023-04-10T09:24:30.860Z,64.52
2023-04-10T09:25:30.880Z,64.52
2023-04-10T09:26:30.850Z,64.52
2023-04-10T09:27:30.850Z,64.62
2023-04-10T09:28:30.924Z,64.62
2023-04-10T09:29:30.801Z,64.52
2023-04-10T09:30:30.917Z,64.52
2023-04-10T09:31:30.882Z,64.52
2023-04-10T09:32:30.808Z,64.52
2023-04-10T09:33:30.758Z,64.52
2023-04-10T09:34:31.179Z,64.52
2023-04-10T09:35:30.734Z,64.52
2023-04-10T09:36:30.772Z,64.52
2023-04-10T09:37:30.712Z,64.52
2023-04-10T09:38:30.919Z,64.52
2023-04-10T09:39:30.907Z,64.52
2023-04-10T09:40:30.684Z,64.52
2023-04-10T09:41:31.341Z,64.52
2023-04-10T09:42:30.658Z,64.52
2023-04-10T09:43:30.646Z,64.52
2023-04-10T09:44:30.669Z,64.52
2023-04-10T09:45:30.629Z,64.52
2023-04-10T09:46:30.658Z,64.52
2023-04-10T09:47:30.672Z,64.52
2023-04-10T09:48:30.603Z,64.52
2023-04-10T09:49:30.583Z,64.52
2023-04-10T09:50:32.403Z,64.52
2023-04-10T09:51:30.558Z,64.52
2023-04-10T09:52:31.366Z,64.52
2023-04-10T09:53:30.545Z,64.52
2023-04-10T09:54:30.527Z,64.52
2023-04-10T09:55:30.522Z,64.52
2023-04-10T09:56:30.510Z,64.52
2023-04-10T09:57:30.603Z,64.52
2023-04-10T09:58:30.489Z,64.52
2023-04-10T09:59:30.756Z,64.52
2023-04-10T10:00:32.029Z,64.52
2023-04-10T10:01:30.535Z,64.52
2023-04-10T10:02:30.572Z,64.52
2023-04-10T10:03:30.592Z,64.42
2023-04-10T10:04:30.475Z,64.52
2023-04-10T10:05:30.421Z,64.52
2023-04-10T10:06:30.452Z,64.52
2023-04-10T10:07:30.394Z,64.42
2023-04-10T10:08:30.377Z,64.42
2023-04-10T10:09:30.372Z,64.42
2023-04-10T10:10:30.356Z,64.42
2023-04-10T10:11:30.397Z,64.42
2023-04-10T10:12:30.336Z,64.42
2023-04-10T10:13:30.352Z,64.42
2023-04-10T10:14:30.314Z,64.42
2023-04-10T10:15:30.303Z,64.42
2023-04-10T10:16:30.375Z,64.42
2023-04-10T10:17:30.355Z,64.42
2023-04-10T10:18:30.288Z,64.42
2023-04-10T10:19:30.265Z,64.42
2023-04-10T10:20:30.255Z,64.42
2023-04-10T10:21:30.362Z,64.52
2023-04-10T10:22:30.230Z,64.42
2023-04-10T10:23:30.226Z,64.42
2023-04-10T10:24:31.411Z,64.42
2023-04-10T10:25:30.203Z,64.52
2023-04-10T10:26:30.195Z,64.42
2023-04-10T10:27:30.204Z,64.42
2023-04-10T10:28:30.166Z,64.52
2023-04-10T10:29:30.182Z,64.52
2023-04-10T10:30:30.762Z,64.42
2023-04-10T10:31:30.189Z,64.42
2023-04-10T10:32:30.139Z,64.42
2023-04-10T10:33:30.163Z,64.52
2023-04-10T10:34:30.102Z,64.42
2023-04-10T10:35:30.268Z,64.42
2023-04-10T10:36:30.138Z,64.52
2023-04-10T10:37:31.010Z,64.52
2023-04-10T10:38:30.067Z,64.42
2023-04-10T10:39:30.052Z,64.42
2023-04-10T10:40:30.041Z,64.42
2023-04-10T10:41:30.051Z,64.42
2023-04-10T10:42:30.058Z,64.42
2023-04-10T10:43:30.008Z,64.42
2023-04-10T10:44:30.001Z,64.42
2023-04-10T10:45:30.036Z,64.42
2023-04-10T10:46:29.978Z,64.42
2023-04-10T10:47:29.983Z,64.42
2023-04-10T10:48:30.000Z,64.42
2023-04-10T10:49:29.943Z,64.42
2023-04-10T10:50:30.185Z,64.42
2023-04-10T10:51:29.929Z,64.42
2023-04-10T10:52:29.912Z,64.42
2023-04-10T10:53:29.903Z,64.42
2023-04-10T10:54:29.898Z,64.42
2023-04-10T10:55:29.897Z,64.42
2023-04-10T10:56:29.922Z,64.42
2023-04-10T10:57:29.867Z,64.42
2023-04-10T10:58:29.851Z,64.42
2023-04-10T10:59:29.840Z,64.42
2023-04-10T11:00:32.049Z,64.42
2023-04-10T11:01:29.873Z,64.42
2023-04-10T11:02:30.065Z,64.42
2023-04-10T11:03:30.017Z,64.32
2023-04-10T11:04:29.803Z,64.32
2023-04-10T11:05:29.774Z,64.32
2023-04-10T11:06:29.763Z,64.42
2023-04-10T11:07:29.758Z,64.42
2023-04-10T11:08:29.765Z,64.42
2023-04-10T11:09:29.730Z,64.42
2023-04-10T11:10:31.309Z,64.42
2023-04-10T11:11:29.707Z,64.32
2023-04-10T11:12:29.699Z,64.32
2023-04-10T11:13:29.686Z,64.42
2023-04-10T11:14:29.790Z,64.42
2023-04-10T11:15:29.665Z,64.42
2023-04-10T11:16:29.721Z,64.42
2023-04-10T11:17:29.709Z,64.42
2023-04-10T11:18:29.634Z,64.42
2023-04-10T11:19:30.023Z,64.42
2023-04-10T11:20:29.610Z,64.42
2023-04-10T11:21:29.717Z,64.42
2023-04-10T11:22:29.598Z,64.42
2023-04-10T11:23:29.586Z,64.42
2023-04-10T11:24:29.618Z,64.52
2023-04-10T11:25:29.826Z,64.52
2023-04-10T11:26:29.544Z,64.42
2023-04-10T11:27:29.536Z,64.42
2023-04-10T11:28:29.524Z,64.42
2023-04-10T11:29:29.567Z,64.42
2023-04-10T11:30:30.278Z,64.42
2023-04-10T11:31:29.501Z,64.42
2023-04-10T11:32:29.547Z,64.42
2023-04-10T11:33:29.554Z,64.42
2023-04-10T11:34:29.457Z,64.42
2023-04-10T11:35:29.482Z,64.42
2023-04-10T11:36:30.063Z,64.42
2023-04-10T11:37:29.420Z,64.42
2023-04-10T11:38:29.410Z,64.42
2023-04-10T11:39:29.421Z,64.52
2023-04-10T11:40:29.388Z,64.52
2023-04-10T11:41:29.378Z,64.42
2023-04-10T11:42:29.412Z,64.42
2023-04-10T11:43:29.379Z,64.42
2023-04-10T11:44:29.356Z,64.52
2023-04-10T11:45:29.335Z,64.52
2023-04-10T11:46:29.489Z,64.52
2023-04-10T11:47:29.340Z,64.52
2023-04-10T11:48:29.336Z,64.52
2023-04-10T11:49:29.295Z,64.52
2023-04-10T11:50:29.286Z,64.52
2023-04-10T11:51:29.273Z,64.52
2023-04-10T11:52:29.418Z,64.52
2023-04-10T11:53:29.246Z,64.52
2023-04-10T11:54:29.289Z,64.49
2023-04-10T11:55:29.226Z,64.52
2023-04-10T11:56:29.220Z,64.52
2023-04-10T11:57:29.203Z,64.52
2023-04-10T11:58:29.200Z,64.52
2023-04-10T11:59:29.220Z,64.49
2023-04-10T12:00:29.171Z,64.52
2023-04-10T12:01:29.166Z,64.49
2023-04-10T12:02:29.259Z,64.49
2023-04-10T12:03:29.289Z,64.49
2023-04-10T12:04:29.372Z,64.52
2023-04-10T12:05:29.123Z,64.49
2023-04-10T12:06:29.118Z,64.49
2023-04-10T12:07:31.970Z,64.49
2023-04-10T12:08:29.107Z,64.49
2023-04-10T12:09:29.078Z,64.49
2023-04-10T12:10:29.064Z,64.49
2023-04-10T12:11:29.053Z,64.49
2023-04-10T12:12:29.042Z,64.49
2023-04-10T12:13:29.136Z,64.49
2023-04-10T12:14:29.021Z,64.49
2023-04-10T12:15:29.078Z,64.49
2023-04-10T12:16:29.270Z,64.49
2023-04-10T12:17:29.000Z,64.39
2023-04-10T12:18:28.984Z,64.49
2023-04-10T12:19:29.352Z,64.49
2023-04-10T12:20:28.979Z,64.49
2023-04-10T12:21:28.950Z,64.49
2023-04-10T12:22:29.190Z,64.49
2023-04-10T12:23:28.930Z,64.49
2023-04-10T12:24:28.913Z,64.49
2023-04-10T12:25:28.901Z,64.49
2023-04-10T12:26:28.891Z,64.49
2023-04-10T12:27:29.100Z,64.49
2023-04-10T12:28:28.876Z,64.49
2023-04-10T12:29:28.870Z,64.49
2023-04-10T12:30:28.849Z,64.49
2023-04-10T12:31:28.837Z,64.39
2023-04-10T12:32:29.051Z,64.49
2023-04-10T12:33:28.817Z,64.49
2023-04-10T12:34:28.965Z,64.49
2023-04-10T12:35:28.828Z,64.39
2023-04-10T12:36:28.832Z,64.49
2023-04-10T12:37:28.809Z,64.49
2023-04-10T12:38:28.772Z,64.49
2023-04-10T12:39:28.756Z,64.49
2023-04-10T12:40:28.750Z,64.49
2023-04-10T12:41:28.797Z,64.49
2023-04-10T12:42:28.728Z,64.49
2023-04-10T12:43:29.843Z,64.49
2023-04-10T12:44:28.708Z,64.49
2023-04-10T12:45:28.695Z,64.49
2023-04-10T12:46:28.926Z,64.49
2023-04-10T12:47:28.727Z,64.49
2023-04-10T12:48:28.751Z,64.49
2023-04-10T12:49:28.650Z,64.39
2023-04-10T12:50:28.651Z,64.49
2023-04-10T12:51:28.631Z,64.39
2023-04-10T12:52:28.996Z,64.39